Mahaffey, Pennsylvania
Current Conditions -  °F | °C
As of 3:54 AM on Thursday 23 Oct 2014 (Local Time) from KFIG Reporting Station
Overcast Overcast  
Wind Chill:   Ceiling: 1500
Heat Index:   Visibility: 10mi
Dew Point:   Wind: 9mph
Humidity: 79%   Direction: 350°N
Pressure: 30.03"   Gusts: NA
Location:  40.87°N, 78.72°W
Report Text: KFIG 230754Z AUTO 35008KT 10SM OVC015 08/04 A3003 RMK AO2 SLP175 T00780044
Loading
Personal Weather Stations






























Interactive Weather Map
Tropical Storm Tracking
New forecast layout! Learn more

10-Day Weather Forecast

Advertisements
Track Severe Weather on mobile